Time;durP1;ratioP1;P1;durP2;ratioP2;P2;SDS_P1;SDS_P2;PMS_P1;PMS_P2;Temp;Humidity;BMP_temperature;BMP_pressure;BME280_temperature;BME280_humidity;BME280_pressure;Samples;Min_cycle;Max_cycle;Signal;HPM_P1;HPM_P2
2023/04/20 00:02:25;;;;;;;1.30;1.30;;;18.40;62.20;;;;;;5064418;28;45176;-76
2023/04/20 00:04:53;;;;;;;1.30;1.30;;;18.30;62.20;;;;;;5066208;28;43454;-77
2023/04/20 00:07:23;;;;;;;1.40;1.40;;;18.30;62.30;;;;;;5067811;28;43392;-76
2023/04/20 00:09:51;;;;;;;1.63;1.63;;;18.20;62.40;;;;;;5064086;28;46040;-76
2023/04/20 00:12:19;;;;;;;1.30;1.30;;;18.20;62.50;;;;;;5065958;28;43998;-76
2023/04/20 00:14:47;;;;;;;1.40;1.40;;;18.20;62.50;;;;;;5065844;28;44004;-76
2023/04/20 00:17:15;;;;;;;1.10;1.10;;;18.20;62.60;;;;;;5065763;28;43412;-76
2023/04/20 00:19:43;;;;;;;1.20;1.20;;;18.20;62.60;;;;;;5059567;28;43800;-76
2023/04/20 00:22:11;;;;;;;1.40;1.40;;;18.20;62.70;;;;;;5064549;28;44931;-77
2023/04/20 00:24:40;;;;;;;1.37;1.37;;;18.20;62.80;;;;;;5064159;28;43374;-76
2023/04/20 00:27:08;;;;;;;1.30;1.30;;;18.10;62.60;;;;;;5063655;28;43969;-76
2023/04/20 00:29:36;;;;;;;1.43;1.43;;;18.20;62.60;;;;;;5050632;28;46169;-76
2023/04/20 00:32:05;;;;;;;1.37;1.37;;;18.20;62.60;;;;;;5066169;28;45439;-75
2023/04/20 00:34:32;;;;;;;1.30;1.30;;;18.20;62.60;;;;;;5064426;28;43509;-77
2023/04/20 00:37:00;;;;;;;1.20;1.20;;;18.20;62.70;;;;;;5065164;28;44122;-72
2023/04/20 00:39:28;;;;;;;1.20;1.20;;;18.10;62.70;;;;;;5065564;28;43732;-77
2023/04/20 00:42:05;;;;;;;1.30;1.30;;;18.10;62.70;;;;;;5050244;28;44710;-75
2023/04/20 00:44:33;;;;;;;1.30;1.30;;;18.20;62.50;;;;;;5066556;28;43652;-77
2023/04/20 00:47:01;;;;;;;1.30;1.30;;;18.30;62.40;;;;;;5069686;28;43747;-74
2023/04/20 00:49:30;;;;;;;1.40;1.40;;;18.40;62.10;;;;;;5067751;28;45336;-77
2023/04/20 00:51:58;;;;;;;1.50;1.50;;;18.40;61.90;;;;;;5069590;28;43389;-76
2023/04/20 00:54:26;;;;;;;1.60;1.60;;;18.40;61.80;;;;;;5069542;28;43811;-76
2023/04/20 00:56:55;;;;;;;1.50;1.50;;;18.40;61.90;;;;;;5069456;28;43462;-76
2023/04/20 00:59:24;;;;;;;1.50;1.50;;;18.40;61.90;;;;;;5050284;28;45871;-77
2023/04/20 01:01:52;;;;;;;1.37;1.37;;;18.40;62.00;;;;;;5066225;28;44072;-77
2023/04/20 01:04:21;;;;;;;1.50;1.50;;;18.30;62.00;;;;;;5059972;28;44108;-76
2023/04/20 01:06:50;;;;;;;1.40;1.40;;;18.30;62.20;;;;;;5064994;28;43504;-76
2023/04/20 01:09:18;;;;;;;1.50;1.50;;;18.20;62.20;;;;;;5068647;28;43943;-74
2023/04/20 01:11:46;;;;;;;1.60;1.50;;;18.20;62.40;;;;;;5068552;28;43449;-76
2023/04/20 01:14:16;;;;;;;1.33;1.33;;;18.20;62.40;;;;;;5069059;28;43369;-76
2023/04/20 01:16:46;;;;;;;1.43;1.33;;;18.20;62.50;;;;;;5068826;28;43479;-76
2023/04/20 01:19:14;;;;;;;1.47;1.47;;;18.20;62.50;;;;;;5066431;28;43664;-76
2023/04/20 01:21:42;;;;;;;1.40;1.40;;;18.20;62.60;;;;;;5068361;28;43796;-76
2023/04/20 01:24:11;;;;;;;1.50;1.50;;;18.20;62.70;;;;;;5069112;28;43455;-77
2023/04/20 01:26:39;;;;;;;1.27;1.27;;;18.10;62.50;;;;;;5068765;28;43403;-75
2023/04/20 01:29:07;;;;;;;1.50;1.50;;;18.10;62.50;;;;;;5067115;28;45691;-77
2023/04/20 01:31:36;;;;;;;1.40;1.40;;;18.10;62.50;;;;;;5066657;28;44557;-76
2023/04/20 01:34:04;;;;;;;1.43;1.43;;;18.10;62.70;;;;;;5068610;28;43407;-76
2023/04/20 01:36:32;;;;;;;1.30;1.30;;;18.10;62.60;;;;;;5067181;28;43502;-76
2023/04/20 01:39:00;;;;;;;1.37;1.37;;;18.10;62.70;;;;;;5067158;28;45974;-77
2023/04/20 01:41:30;;;;;;;1.40;1.40;;;18.10;62.60;;;;;;5067156;28;44760;-77
2023/04/20 01:43:58;;;;;;;1.23;1.23;;;18.10;62.50;;;;;;5068643;28;43985;-76
2023/04/20 01:46:26;;;;;;;1.30;1.30;;;18.10;62.60;;;;;;5068582;28;44222;-76
2023/04/20 01:48:54;;;;;;;1.30;1.23;;;18.10;62.60;;;;;;5068132;28;43877;-76
2023/04/20 01:51:22;;;;;;;1.53;1.43;;;18.10;62.70;;;;;;5066908;28;43948;-76
2023/04/20 01:53:50;;;;;;;1.40;1.40;;;18.10;62.80;;;;;;5068470;28;43504;-76
2023/04/20 01:56:18;;;;;;;1.30;1.30;;;18.10;62.60;;;;;;5067959;28;43396;-75
2023/04/20 01:58:47;;;;;;;1.40;1.40;;;18.20;62.40;;;;;;5066257;28;45831;-74
2023/04/20 02:01:16;;;;;;;1.30;1.30;;;18.30;62.20;;;;;;5058983;28;44720;-76
2023/04/20 02:03:44;;;;;;;1.50;1.40;;;18.40;61.90;;;;;;5066591;28;43376;-76
2023/04/20 02:06:13;;;;;;;1.33;1.33;;;18.40;61.60;;;;;;5068470;28;43346;-76
2023/04/20 02:08:41;;;;;;;1.20;1.20;;;18.40;61.60;;;;;;5060307;28;45730;-76
2023/04/20 02:11:09;;;;;;;1.67;1.67;;;18.40;61.80;;;;;;5065858;28;44801;-76
2023/04/20 02:13:38;;;;;;;1.23;1.23;;;18.40;61.70;;;;;;5047498;28;43400;-77
2023/04/20 02:16:08;;;;;;;1.20;1.20;;;18.40;61.70;;;;;;5069371;28;43565;-75
2023/04/20 02:18:36;;;;;;;1.40;1.40;;;18.30;61.70;;;;;;5065257;28;43729;-76
2023/04/20 02:21:04;;;;;;;1.20;1.20;;;18.30;61.90;;;;;;5050208;28;44342;-75
2023/04/20 02:23:32;;;;;;;1.47;1.47;;;18.30;62.00;;;;;;5067404;28;43403;-76
2023/04/20 02:26:00;;;;;;;1.20;1.20;;;18.20;62.00;;;;;;5067956;28;43439;-75
2023/04/20 02:28:28;;;;;;;1.40;1.40;;;18.20;62.00;;;;;;5066985;28;43657;-76
2023/04/20 02:30:56;;;;;;;1.40;1.40;;;18.20;62.00;;;;;;5067923;28;43415;-77
2023/04/20 02:33:25;;;;;;;1.30;1.30;;;18.20;62.10;;;;;;5067575;28;43928;-76
2023/04/20 02:35:55;;;;;;;1.33;1.33;;;18.20;62.20;;;;;;5067478;28;43502;-77
2023/04/20 02:38:23;;;;;;;1.60;1.60;;;18.20;62.20;;;;;;5066443;28;45752;-76
2023/04/20 02:40:51;;;;;;;1.20;1.20;;;18.10;62.20;;;;;;5066757;28;43419;-76
2023/04/20 02:43:20;;;;;;;1.30;1.30;;;18.20;62.20;;;;;;5062655;28;43496;-77
2023/04/20 02:45:48;;;;;;;1.30;1.30;;;18.20;62.20;;;;;;5064441;28;43412;-77
2023/04/20 02:48:17;;;;;;;1.40;1.40;;;18.20;62.20;;;;;;5061330;28;44028;-74
2023/04/20 02:50:47;;;;;;;1.50;1.50;;;18.10;62.30;;;;;;5072125;27;44700;-77
2023/04/20 02:53:22;;;;;;;1.20;1.20;;;18.10;62.30;;;;;;5062027;28;43438;-77
2023/04/20 02:56:13;;;;;;;1.47;1.47;;;18.10;62.20;;;;;;5055539;28;43417;-77
2023/04/20 02:58:44;;;;;;;1.33;1.33;;;18.20;62.00;;;;;;5065715;28;43892;-77
2023/04/20 03:01:20;;;;;;;1.40;1.40;;;18.30;61.70;;;;;;5064942;28;44848;-76
2023/04/20 03:03:51;;;;;;;1.33;1.33;;;18.40;61.60;;;;;;5053840;28;43486;-77
2023/04/20 03:06:20;;;;;;;1.50;1.50;;;18.40;61.60;;;;;;5067428;28;43412;-77
2023/04/20 03:08:55;;;;;;;1.20;1.20;;;18.30;61.60;;;;;;5062222;28;46030;-77
2023/04/20 03:11:43;;;;;;;1.40;1.40;;;18.30;61.60;;;;;;5050048;28;43569;-77
2023/04/20 03:14:17;;;;;;;1.50;1.50;;;18.30;61.60;;;;;;5065532;28;43381;-77
2023/04/20 03:16:45;;;;;;;1.40;1.40;;;18.30;61.70;;;;;;5065877;28;43931;-75
2023/04/20 03:19:13;;;;;;;1.27;1.27;;;18.30;61.90;;;;;;5060670;28;46292;-76
2023/04/20 03:21:42;;;;;;;1.30;1.30;;;18.20;61.90;;;;;;5065272;28;45086;-76
2023/04/20 03:24:10;;;;;;;1.60;1.60;;;18.20;62.00;;;;;;5065178;28;43406;-77
2023/04/20 03:26:42;;;;;;;1.33;1.33;;;18.20;61.90;;;;;;5067157;28;43379;-76
2023/04/20 03:29:14;;;;;;;1.20;1.20;;;18.20;61.90;;;;;;5064019;28;45541;-76
2023/04/20 03:31:44;;;;;;;1.30;1.30;;;18.20;62.10;;;;;;5066377;28;43565;-77
2023/04/20 03:34:12;;;;;;;3.00;1.40;;;18.10;62.00;;;;;;5065156;28;43924;-77
2023/04/20 03:36:42;;;;;;;2.80;1.50;;;18.10;62.10;;;;;;5059930;28;43928;-75
2023/04/20 03:39:12;;;;;;;1.40;1.40;;;18.10;62.10;;;;;;5064380;28;46133;-77
2023/04/20 03:41:40;;;;;;;1.30;1.30;;;18.10;62.00;;;;;;5064776;28;44975;-76
2023/04/20 03:44:10;;;;;;;1.30;1.30;;;18.10;61.80;;;;;;5065263;28;43972;-77
2023/04/20 03:46:41;;;;;;;1.10;1.10;;;18.10;61.90;;;;;;5065339;28;43719;-77
2023/04/20 03:49:09;;;;;;;1.33;1.33;;;18.10;62.00;;;;;;5065053;28;45888;-77
2023/04/20 03:51:37;;;;;;;1.30;1.30;;;18.10;62.10;;;;;;5064352;28;44704;-76
2023/04/20 03:54:07;;;;;;;1.40;1.40;;;18.10;62.20;;;;;;5069993;27;43395;-75
2023/04/20 03:56:38;;;;;;;1.30;1.30;;;18.20;62.10;;;;;;5064584;28;44110;-76
2023/04/20 03:59:07;;;;;;;1.20;1.20;;;18.20;61.70;;;;;;5063918;28;44722;-77
2023/04/20 04:01:37;;;;;;;1.50;1.50;;;18.40;61.60;;;;;;5064256;28;46421;-76
2023/04/20 04:04:05;;;;;;;1.40;1.40;;;18.40;61.30;;;;;;5064645;28;43425;-77
2023/04/20 04:06:33;;;;;;;1.20;1.20;;;18.30;61.10;;;;;;5064713;28;43937;-76
2023/04/20 04:09:02;;;;;;;1.17;1.17;;;18.30;61.40;;;;;;5064709;28;45739;-76
2023/04/20 04:11:31;;;;;;;1.20;1.20;;;18.30;61.50;;;;;;5064441;28;45991;-76
2023/04/20 04:13:59;;;;;;;1.20;1.20;;;18.30;61.30;;;;;;5056583;28;43559;-76
2023/04/20 04:16:28;;;;;;;1.30;1.30;;;18.30;61.50;;;;;;5066671;28;43475;-75
2023/04/20 04:18:56;;;;;;;1.30;1.30;;;18.20;61.60;;;;;;5056934;28;43824;-77
2023/04/20 04:21:27;;;;;;;1.43;1.43;;;18.20;61.80;;;;;;5064030;28;44681;-76
2023/04/20 04:24:00;;;;;;;1.33;1.33;;;18.10;61.90;;;;;;5065279;28;43861;-76
2023/04/20 04:26:42;;;;;;;1.37;1.37;;;18.10;61.80;;;;;;5053205;28;43513;-76
2023/04/20 04:29:10;;;;;;;1.33;1.33;;;18.10;61.70;;;;;;5064111;28;45888;-76
2023/04/20 04:31:38;;;;;;;1.10;1.10;;;18.10;61.80;;;;;;5064735;28;43344;-77
2023/04/20 04:34:13;;;;;;;2.27;1.47;;;18.10;61.90;;;;;;5063466;28;43917;-77
2023/04/20 04:36:48;;;;;;;2.23;1.30;;;18.10;62.00;;;;;;5064715;28;43928;-77
2023/04/20 04:39:20;;;;;;;1.47;1.47;;;18.10;62.00;;;;;;5057873;28;43836;-76
2023/04/20 04:41:58;;;;;;;1.20;1.20;;;18.10;61.50;;;;;;5063759;28;44650;-76
2023/04/20 04:44:37;;;;;;;1.53;1.50;;;18.20;61.40;;;;;;5079944;27;43491;-76
2023/04/20 04:47:08;;;;;;;1.40;1.40;;;18.30;61.30;;;;;;5057047;28;43410;-76
2023/04/20 04:49:39;;;;;;;1.30;1.30;;;18.30;61.10;;;;;;5065259;28;44055;-75
2023/04/20 04:52:08;;;;;;;2.00;1.90;;;18.20;61.30;;;;;;5075723;27;44068;-76
2023/04/20 04:54:36;;;;;;;1.83;1.83;;;18.20;61.10;;;;;;5065578;28;43387;-76
2023/04/20 04:57:06;;;;;;;1.70;1.70;;;18.20;60.50;;;;;;5064616;28;43737;-77
2023/04/20 04:59:34;;;;;;;1.77;1.77;;;18.20;60.70;;;;;;5065216;28;44595;-77
2023/04/20 05:02:01;;;;;;;1.90;1.90;;;18.10;60.30;;;;;;5052374;28;44727;-76
2023/04/20 05:04:30;;;;;;;1.90;1.80;;;18.10;60.30;;;;;;5063929;28;43379;-77
2023/04/20 05:06:58;;;;;;;1.90;1.80;;;18.10;60.30;;;;;;5064702;28;43406;-77
2023/04/20 05:09:32;;;;;;;2.00;1.90;;;18.10;60.50;;;;;;5065637;28;43930;-77
2023/04/20 05:12:01;;;;;;;1.70;1.70;;;18.10;60.60;;;;;;5065612;28;43362;-76
2023/04/20 05:14:31;;;;;;;1.70;1.70;;;18.10;60.60;;;;;;5065942;28;43445;-76
2023/04/20 05:17:00;;;;;;;1.60;1.60;;;18.10;60.80;;;;;;5065382;28;43421;-77
2023/04/20 05:19:28;;;;;;;1.90;1.90;;;18.10;60.90;;;;;;5062692;28;43896;-76
2023/04/20 05:21:56;;;;;;;1.67;1.67;;;18.10;61.00;;;;;;5060332;28;44948;-76
2023/04/20 05:24:24;;;;;;;1.77;1.77;;;18.10;61.10;;;;;;5051381;28;43450;-77
2023/04/20 05:26:52;;;;;;;2.20;1.90;;;18.20;60.90;;;;;;5064963;28;44015;-77
2023/04/20 05:29:20;;;;;;;3.33;1.80;;;18.20;60.70;;;;;;5046084;28;45699;-77
2023/04/20 05:31:49;;;;;;;2.07;1.97;;;18.30;60.50;;;;;;5065982;28;43429;-76
2023/04/20 05:34:19;;;;;;;1.93;1.93;;;18.30;60.40;;;;;;5050825;28;43412;-75
2023/04/20 05:36:47;;;;;;;1.93;1.83;;;18.20;60.60;;;;;;5067281;28;43624;-77
2023/04/20 05:39:15;;;;;;;1.80;1.70;;;18.30;60.80;;;;;;5068547;28;43956;-76
2023/04/20 05:41:44;;;;;;;1.70;1.70;;;18.20;60.50;;;;;;5068452;28;43456;-77
2023/04/20 05:44:12;;;;;;;2.03;2.03;;;18.20;60.70;;;;;;5067709;28;43561;-76
2023/04/20 05:46:40;;;;;;;1.90;1.80;;;18.20;60.90;;;;;;5067495;28;43554;-75
2023/04/20 05:49:09;;;;;;;1.60;1.60;;;18.20;61.00;;;;;;5068079;28;43869;-76
2023/04/20 05:51:37;;;;;;;1.77;1.70;;;18.10;61.10;;;;;;5068323;28;43461;-75
2023/04/20 05:54:05;;;;;;;1.87;1.87;;;18.10;61.10;;;;;;5056293;28;43798;-76
2023/04/20 05:56:33;;;;;;;1.87;1.87;;;18.10;61.00;;;;;;5062176;28;43359;-77
2023/04/20 05:59:03;;;;;;;1.90;1.90;;;18.10;61.20;;;;;;5064997;28;46039;-75
2023/04/20 06:01:32;;;;;;;1.80;1.80;;;18.10;61.20;;;;;;5059991;28;43409;-75
2023/04/20 06:04:00;;;;;;;1.80;1.80;;;18.00;61.30;;;;;;5061516;28;43844;-75
2023/04/20 06:06:31;;;;;;;1.70;1.70;;;18.00;61.20;;;;;;5067557;28;44019;-75
2023/04/20 06:09:04;;;;;;;1.97;1.97;;;18.00;61.10;;;;;;5068335;28;43990;-77
2023/04/20 06:11:32;;;;;;;1.97;1.97;;;18.00;61.10;;;;;;5068249;28;43426;-76
2023/04/20 06:14:00;;;;;;;2.00;2.00;;;18.00;61.20;;;;;;5066490;28;43572;-75
2023/04/20 06:16:28;;;;;;;1.90;1.90;;;18.00;61.40;;;;;;5067084;28;43437;-77
2023/04/20 06:18:56;;;;;;;1.70;1.70;;;18.00;62.20;;;;;;5066731;28;45349;-76
2023/04/20 06:21:26;;;;;;;2.20;2.20;;;18.00;61.40;;;;;;5067880;28;43478;-76
2023/04/20 06:23:55;;;;;;;2.13;2.03;;;18.10;61.40;;;;;;5067888;28;43411;-77
2023/04/20 06:26:23;;;;;;;1.90;1.90;;;18.20;61.20;;;;;;5068166;28;43518;-77
2023/04/20 06:28:52;;;;;;;1.90;1.90;;;18.30;60.90;;;;;;5064624;28;43751;-77
2023/04/20 06:31:22;;;;;;;1.90;1.90;;;18.30;60.60;;;;;;5067837;28;43284;-77
2023/04/20 06:33:50;;;;;;;2.00;2.00;;;18.30;60.70;;;;;;5067902;28;43462;-76
2023/04/20 06:36:18;;;;;;;1.77;1.77;;;18.30;60.90;;;;;;5068185;28;43420;-76
2023/04/20 06:38:46;;;;;;;2.00;2.00;;;18.30;60.80;;;;;;5066020;28;45620;-76
2023/04/20 06:41:15;;;;;;;1.90;1.90;;;18.30;60.80;;;;;;5059161;28;44942;-76
2023/04/20 06:43:44;;;;;;;1.93;1.93;;;18.20;60.70;;;;;;5067576;28;43520;-76
2023/04/20 06:46:12;;;;;;;2.30;2.20;;;18.20;61.00;;;;;;5066370;28;43561;-77
2023/04/20 06:48:40;;;;;;;1.80;1.80;;;18.10;61.00;;;;;;5065518;28;45414;-77
2023/04/20 06:51:08;;;;;;;1.80;1.80;;;18.10;61.20;;;;;;5067301;28;43484;-77
2023/04/20 06:53:36;;;;;;;2.20;2.10;;;18.10;61.00;;;;;;5066677;28;43445;-76
2023/04/20 06:56:07;;;;;;;1.93;1.93;;;18.10;61.20;;;;;;5066010;28;43940;-77
2023/04/20 06:58:38;;;;;;;1.83;1.83;;;18.10;61.40;;;;;;5065748;28;45947;-77
2023/04/20 07:01:08;;;;;;;1.90;1.80;;;18.10;61.50;;;;;;5066754;28;43437;-77
2023/04/20 07:03:36;;;;;;;2.20;2.20;;;18.00;61.50;;;;;;5065615;28;43366;-76
2023/04/20 07:06:06;;;;;;;2.17;2.10;;;18.00;61.50;;;;;;5067825;28;43877;-77
2023/04/20 07:08:33;;;;;;;1.93;1.93;;;18.10;61.50;;;;;;5066334;28;43742;-77
2023/04/20 07:11:01;;;;;;;1.70;1.70;;;18.10;61.20;;;;;;5067048;28;43438;-75
2023/04/20 07:13:30;;;;;;;2.00;2.00;;;18.10;61.20;;;;;;5065728;28;43399;-76
2023/04/20 07:16:02;;;;;;;2.20;2.20;;;18.10;61.20;;;;;;5067843;28;43343;-71
2023/04/20 07:18:30;;;;;;;1.87;1.87;;;18.10;61.40;;;;;;5064019;28;43871;-76
2023/04/20 07:21:01;;;;;;;1.97;1.97;;;18.10;61.40;;;;;;5065641;28;44510;-75
2023/04/20 07:23:29;;;;;;;1.90;1.90;;;18.10;61.30;;;;;;5066931;28;43779;-76
2023/04/20 07:25:57;;;;;;;1.70;1.70;;;18.10;61.50;;;;;;5066038;28;43480;-76
2023/04/20 07:28:25;;;;;;;1.90;1.90;;;18.10;61.40;;;;;;5062774;28;43856;-76
2023/04/20 07:30:53;;;;;;;2.17;2.00;;;18.00;61.40;;;;;;5065415;28;45000;-76
2023/04/20 07:33:23;;;;;;;2.10;2.10;;;18.00;61.60;;;;;;5065165;28;43475;-77
2023/04/20 07:35:50;;;;;;;1.90;1.90;;;18.00;61.60;;;;;;5065841;28;44032;-76
2023/04/20 07:38:18;;;;;;;1.97;1.97;;;18.10;61.50;;;;;;5066568;28;45690;-77
2023/04/20 07:40:46;;;;;;;1.80;1.80;;;18.20;61.30;;;;;;5049744;28;45111;-76
2023/04/20 07:43:15;;;;;;;1.80;1.80;;;18.20;61.00;;;;;;5066714;28;43494;-76
2023/04/20 07:45:43;;;;;;;2.10;2.10;;;18.20;61.20;;;;;;5066861;28;43423;-77
2023/04/20 07:48:11;;;;;;;2.10;2.10;;;18.10;61.20;;;;;;5066256;28;43917;-77
2023/04/20 07:50:40;;;;;;;2.10;2.10;;;18.10;61.30;;;;;;5066378;28;43404;-77
2023/04/20 07:53:08;;;;;;;2.20;2.17;;;18.10;61.20;;;;;;5066297;28;43529;-77
2023/04/20 07:55:36;;;;;;;1.97;1.97;;;18.10;61.40;;;;;;5065200;28;43585;-76
2023/04/20 07:58:21;;;;;;;2.00;2.00;;;18.10;61.40;;;;;;5065883;28;43705;-77
2023/04/20 08:00:49;;;;;;;1.90;1.90;;;18.10;61.60;;;;;;5066253;28;43464;-76
2023/04/20 08:03:17;;;;;;;1.87;1.87;;;18.00;61.70;;;;;;5066073;28;43391;-76
2023/04/20 08:05:47;;;;;;;2.00;2.00;;;18.00;61.60;;;;;;5066043;28;43728;-75
2023/04/20 08:08:16;;;;;;;1.70;1.70;;;18.00;61.60;;;;;;5061261;28;44021;-77
2023/04/20 08:10:44;;;;;;;1.87;1.87;;;18.00;61.70;;;;;;5065853;28;43435;-76
2023/04/20 08:13:12;;;;;;;1.87;1.87;;;18.00;61.80;;;;;;5065957;28;44030;-76
2023/04/20 08:15:40;;;;;;;2.40;2.20;;;18.00;61.90;;;;;;5065098;28;43533;-76
2023/04/20 08:18:10;;;;;;;2.00;2.00;;;17.90;61.90;;;;;;5055680;28;43897;-75
2023/04/20 08:20:38;;;;;;;2.20;2.10;;;17.90;61.90;;;;;;5061030;28;43498;-77
2023/04/20 08:23:07;;;;;;;2.00;1.90;;;18.00;61.80;;;;;;5058944;28;43991;-77
2023/04/20 08:25:35;;;;;;;2.10;2.10;;;18.10;61.60;;;;;;5059324;28;43783;-77
2023/04/20 08:28:05;;;;;;;2.00;2.00;;;18.10;61.20;;;;;;5054227;28;43776;-77
2023/04/20 08:30:40;;;;;;;2.20;1.97;;;18.10;61.30;;;;;;5060336;28;43364;-77
2023/04/20 08:33:08;;;;;;;1.93;1.93;;;18.10;61.50;;;;;;5056650;28;43515;-76
2023/04/20 08:35:36;;;;;;;2.07;2.07;;;18.10;61.40;;;;;;5054785;28;43454;-76
2023/04/20 08:38:04;;;;;;;2.00;2.00;;;18.10;61.50;;;;;;5057124;28;43920;-76
2023/04/20 08:40:33;;;;;;;2.00;2.00;;;18.10;61.60;;;;;;5057974;28;43471;-75
2023/04/20 08:43:01;;;;;;;2.23;2.10;;;18.10;62.50;;;;;;5060797;28;43449;-74
2023/04/20 08:45:30;;;;;;;1.90;1.90;;;18.00;61.70;;;;;;5058271;28;43448;-76
2023/04/20 08:47:58;;;;;;;1.83;1.83;;;18.00;61.80;;;;;;5060640;28;43931;-76
2023/04/20 08:50:26;;;;;;;2.33;2.23;;;18.00;61.80;;;;;;5058420;28;44840;-77
2023/04/20 08:52:55;;;;;;;1.93;1.93;;;18.00;61.80;;;;;;5055785;28;43587;-76
2023/04/20 08:55:25;;;;;;;2.20;2.20;;;18.00;61.80;;;;;;5058548;28;43512;-73
2023/04/20 08:57:55;;;;;;;1.90;1.90;;;17.90;61.70;;;;;;5055488;28;45367;-78
2023/04/20 09:00:22;;;;;;;1.87;1.87;;;17.90;61.80;;;;;;5057422;28;44730;-77
2023/04/20 09:02:51;;;;;;;2.13;2.13;;;17.90;61.90;;;;;;5058023;28;43460;-77
2023/04/20 09:05:26;;;;;;;2.30;2.30;;;17.90;61.90;;;;;;5062432;28;43439;-77
2023/04/20 09:07:55;;;;;;;2.00;2.00;;;18.00;61.80;;;;;;5061795;28;45663;-76
2023/04/20 09:10:23;;;;;;;2.00;1.97;;;18.10;61.50;;;;;;5060357;28;43398;-76
2023/04/20 09:12:52;;;;;;;2.60;2.50;;;18.10;61.30;;;;;;5063842;28;43422;-76
2023/04/20 09:15:27;;;;;;;2.00;1.90;;;18.10;61.40;;;;;;5068661;28;43474;-74
2023/04/20 09:17:55;;;;;;;2.30;2.20;;;18.10;61.60;;;;;;5061540;28;43903;-76
2023/04/20 09:20:28;;;;;;;2.00;2.00;;;18.10;61.60;;;;;;5053947;28;44339;-76
2023/04/20 09:22:56;;;;;;;2.13;2.13;;;18.10;61.60;;;;;;5059706;28;43420;-76
2023/04/20 09:25:25;;;;;;;1.90;1.90;;;18.00;61.60;;;;;;5060392;28;43433;-76
2023/04/20 09:27:56;;;;;;;2.13;2.13;;;18.00;61.70;;;;;;5057546;28;43551;-76
2023/04/20 09:30:24;;;;;;;2.10;2.10;;;18.00;61.80;;;;;;5062369;28;43459;-76
2023/04/20 09:33:02;;;;;;;1.83;1.83;;;18.00;61.90;;;;;;5057772;28;43693;-76
2023/04/20 09:35:30;;;;;;;2.17;2.03;;;18.00;61.90;;;;;;5060406;28;43527;-76
2023/04/20 09:37:58;;;;;;;2.10;2.10;;;18.10;61.80;;;;;;5061547;28;45874;-77
2023/04/20 09:40:26;;;;;;;2.30;2.30;;;18.10;61.40;;;;;;5059490;28;43362;-77
2023/04/20 09:42:54;;;;;;;2.07;2.07;;;18.10;61.50;;;;;;5063368;28;43449;-74
2023/04/20 09:45:22;;;;;;;2.17;2.17;;;18.10;61.50;;;;;;5059801;28;43470;-77
2023/04/20 09:47:50;;;;;;;2.30;2.10;;;18.10;61.70;;;;;;5060269;28;45966;-76
2023/04/20 09:50:20;;;;;;;2.10;2.10;;;18.00;61.60;;;;;;5059250;28;44625;-77
2023/04/20 09:52:59;;;;;;;2.30;2.20;;;18.00;61.60;;;;;;5058420;28;43414;-77
2023/04/20 09:55:27;;;;;;;1.97;1.97;;;18.00;61.70;;;;;;5059926;28;43393;-76
2023/04/20 09:57:55;;;;;;;2.00;2.00;;;18.00;61.70;;;;;;5059104;28;46118;-76
2023/04/20 10:00:25;;;;;;;2.40;2.40;;;18.00;61.80;;;;;;5060162;28;43558;-77
2023/04/20 10:02:53;;;;;;;2.40;2.30;;;18.00;62.00;;;;;;5060457;28;43808;-77
2023/04/20 10:05:35;;;;;;;2.17;2.17;;;18.00;61.70;;;;;;5060545;28;43442;-77
2023/04/20 10:08:03;;;;;;;2.33;2.33;;;18.00;61.70;;;;;;5059806;28;43913;-77
2023/04/20 10:10:31;;;;;;;2.87;2.67;;;18.00;61.90;;;;;;5060329;28;43407;-73
2023/04/20 10:13:00;;;;;;;3.07;2.97;;;18.00;62.00;;;;;;5061661;28;43394;-76
2023/04/20 10:15:36;;;;;;;3.10;3.00;;;18.00;62.00;;;;;;5062061;28;43434;-74
2023/04/20 10:18:16;;;;;;;3.30;3.20;;;18.00;62.10;;;;;;5062274;28;43911;-77
2023/04/20 10:20:46;;;;;;;3.40;3.20;;;18.00;62.00;;;;;;5060455;28;43475;-77
2023/04/20 10:23:15;;;;;;;3.73;3.53;;;18.10;61.70;;;;;;5059390;28;43465;-75
2023/04/20 10:25:44;;;;;;;3.70;3.60;;;18.20;61.50;;;;;;5063296;28;43944;-77
2023/04/20 10:28:12;;;;;;;3.83;3.73;;;18.20;61.10;;;;;;5059536;28;45754;-77
2023/04/20 10:30:50;;;;;;;4.40;4.10;;;18.10;61.30;;;;;;5059390;28;44740;-75
2023/04/20 10:33:18;;;;;;;4.07;3.87;;;18.10;61.40;;;;;;5058053;28;43408;-77
2023/04/20 10:35:49;;;;;;;4.53;4.33;;;18.10;61.20;;;;;;5059617;28;43858;-77
2023/04/20 10:38:28;;;;;;;4.70;4.37;;;18.10;61.40;;;;;;5057017;28;45826;-77
2023/04/20 10:40:56;;;;;;;4.60;4.30;;;18.10;61.40;;;;;;5059292;28;43404;-77
2023/04/20 10:43:24;;;;;;;4.40;4.20;;;18.00;61.60;;;;;;5059080;28;43453;-76
2023/04/20 10:45:52;;;;;;;5.20;4.90;;;18.00;61.70;;;;;;5061927;28;44054;-76
2023/04/20 10:48:20;;;;;;;4.53;4.33;;;18.00;61.80;;;;;;5059916;28;45503;-76
2023/04/20 10:50:49;;;;;;;4.73;4.50;;;18.00;61.60;;;;;;5060771;28;43339;-77
2023/04/20 10:53:19;;;;;;;4.40;4.20;;;18.00;61.70;;;;;;5067628;28;43453;-75
2023/04/20 10:55:50;;;;;;;5.30;5.00;;;18.00;61.80;;;;;;5066603;28;43389;-76
2023/04/20 10:58:22;;;;;;;5.23;4.93;;;18.00;61.80;;;;;;5065861;28;46347;-76
2023/04/20 11:01:00;;;;;;;5.10;4.90;;;17.90;61.90;;;;;;5066636;28;43407;-77
2023/04/20 11:03:28;;;;;;;5.53;5.17;;;18.00;62.00;;;;;;5067320;28;43474;-77
2023/04/20 11:06:00;;;;;;;5.17;4.87;;;18.00;61.80;;;;;;5068495;28;43289;-77
2023/04/20 11:08:40;;;;;;;5.77;5.37;;;18.10;61.50;;;;;;5067972;28;43791;-77
2023/04/20 11:11:18;;;;;;;6.00;5.67;;;18.10;61.10;;;;;;5068367;28;43482;-77
2023/04/20 11:13:46;;;;;;;5.40;5.10;;;18.10;61.30;;;;;;5066530;28;43432;-77
2023/04/20 11:16:15;;;;;;;5.60;5.30;;;18.10;61.60;;;;;;5057710;28;43474;-76
2023/04/20 11:18:53;;;;;;;6.17;5.57;;;18.10;61.50;;;;;;5064617;28;43779;-77
2023/04/20 11:21:22;;;;;;;5.67;5.27;;;18.10;61.60;;;;;;5060303;28;44810;-75
2023/04/20 11:23:50;;;;;;;5.27;4.97;;;18.10;61.70;;;;;;5068393;28;43414;-77
2023/04/20 11:26:18;;;;;;;5.70;5.37;;;18.00;61.80;;;;;;5065438;28;43470;-77
2023/04/20 11:28:53;;;;;;;6.07;5.63;;;18.00;61.70;;;;;;5061465;28;45883;-77
2023/04/20 11:31:24;;;;;;;5.83;5.43;;;18.00;61.70;;;;;;5063328;28;44657;-77
2023/04/20 11:33:52;;;;;;;6.43;5.93;;;18.00;61.70;;;;;;5065265;28;43461;-77
2023/04/20 11:36:22;;;;;;;7.17;6.47;;;18.10;61.90;;;;;;5067406;28;43380;-77
2023/04/20 11:38:50;;;;;;;6.83;6.27;;;18.00;61.80;;;;;;5058098;28;45321;-75
2023/04/20 11:41:18;;;;;;;7.10;6.60;;;18.00;61.90;;;;;;5064875;28;45188;-76
2023/04/20 11:43:47;;;;;;;7.07;6.10;;;18.00;61.90;;;;;;5066674;28;43397;-77
2023/04/20 11:46:16;;;;;;;6.90;6.30;;;18.10;62.10;;;;;;5065287;28;43561;-77
2023/04/20 11:48:44;;;;;;;8.33;6.93;;;18.10;61.90;;;;;;5066402;28;43681;-77
2023/04/20 11:51:12;;;;;;;7.23;6.53;;;18.20;61.60;;;;;;5066461;28;43384;-78
2023/04/20 11:53:42;;;;;;;6.67;6.07;;;18.20;61.50;;;;;;5064688;28;43289;-77
2023/04/20 11:56:10;;;;;;;6.80;6.23;;;18.20;61.60;;;;;;5066445;28;44018;-75
2023/04/20 11:58:38;;;;;;;7.83;6.83;;;18.20;61.60;;;;;;5066342;28;43852;-76
2023/04/20 12:01:06;;;;;;;7.43;6.53;;;18.10;61.60;;;;;;5066220;28;43448;-77
2023/04/20 12:03:33;;;;;;;6.73;6.27;;;18.20;61.70;;;;;;5066178;28;43672;-77
2023/04/20 12:06:02;;;;;;;6.83;6.23;;;18.10;61.70;;;;;;5065115;28;43507;-76
2023/04/20 12:08:30;;;;;;;7.20;6.53;;;18.10;61.80;;;;;;5066261;28;43934;-77
2023/04/20 12:11:00;;;;;;;6.40;5.87;;;18.10;61.90;;;;;;5062981;28;43925;-77
2023/04/20 12:13:28;;;;;;;6.77;6.13;;;18.10;62.00;;;;;;5064114;28;43425;-77
2023/04/20 12:15:56;;;;;;;7.13;6.47;;;18.10;62.20;;;;;;5066705;28;43453;-77
2023/04/20 12:18:24;;;;;;;9.07;7.03;;;18.10;62.30;;;;;;5064028;28;44049;-76
2023/04/20 12:20:51;;;;;;;9.07;6.90;;;18.20;61.70;;;;;;5065854;28;43391;-77
2023/04/20 12:23:20;;;;;;;12.40;7.53;;;18.20;61.60;;;;;;5058978;28;43402;-76
2023/04/20 12:25:48;;;;;;;10.60;7.50;;;18.10;61.60;;;;;;5064737;28;44090;-77
2023/04/20 12:28:17;;;;;;;8.23;7.00;;;18.10;61.90;;;;;;5062770;28;45401;-77
2023/04/20 12:30:45;;;;;;;9.90;7.10;;;18.10;61.90;;;;;;5069908;28;44873;-73
2023/04/20 12:33:13;;;;;;;9.00;6.73;;;18.10;61.80;;;;;;5067702;28;43482;-76
2023/04/20 12:35:41;;;;;;;13.47;7.77;;;18.10;61.90;;;;;;5066310;28;43333;-77
2023/04/20 12:38:10;;;;;;;8.53;7.00;;;18.10;62.00;;;;;;5066037;28;43610;-77
2023/04/20 12:40:41;;;;;;;9.20;7.13;;;18.00;62.00;;;;;;5067413;28;43436;-77
2023/04/20 12:43:09;;;;;;;8.27;6.83;;;18.00;62.20;;;;;;5052032;28;43393;-77
2023/04/20 12:45:38;;;;;;;11.33;7.30;;;18.00;62.00;;;;;;5067937;28;43400;-77
2023/04/20 12:48:06;;;;;;;12.30;8.03;;;18.00;62.10;;;;;;5068089;28;45965;-77
2023/04/20 12:50:34;;;;;;;7.77;6.70;;;18.00;62.20;;;;;;5067583;28;44522;-77
2023/04/20 12:53:02;;;;;;;8.07;7.23;;;18.00;62.30;;;;;;5069269;28;43394;-77
2023/04/20 12:55:30;;;;;;;11.00;7.23;;;18.00;62.40;;;;;;5056640;28;43545;-77
2023/04/20 12:57:58;;;;;;;10.20;6.97;;;18.00;62.40;;;;;;5069794;28;46166;-77